Time;durP1;ratioP1;P1;durP2;ratioP2;P2;SDS_P1;SDS_P2;PMS_P1;PMS_P2;Temp;Humidity;BMP_temperature;BMP_pressure;BME280_temperature;BME280_humidity;BME280_pressure;Samples;Min_cycle;Max_cycle;Signal;HPM_P1;HPM_P2
2022/06/18 00:00:55;;;;;;;5.53;2.38;;;;;;;22.70;51.25;101662.84;5072744;28;20057;-76
2022/06/18 00:03:21;;;;;;;3.13;2.30;;;;;;;22.68;51.43;101663.91;5044490;28;20036;-76
2022/06/18 00:05:49;;;;;;;4.45;2.28;;;;;;;22.67;51.56;101664.84;5070075;28;20040;-77
2022/06/18 00:08:24;;;;;;;3.42;2.05;;;;;;;22.64;51.12;101662.38;5063635;28;20069;-76
2022/06/18 00:13:39;;;;;;;3.08;2.20;;;;;;;22.61;51.35;101663.44;5068303;28;20111;-76
2022/06/18 00:13:42;;;;;;;4.05;2.45;;;;;;;22.59;51.95;101662.69;5065927;28;20032;-76
2022/06/18 00:16:16;;;;;;;3.28;2.35;;;;;;;22.59;51.00;101668.81;5064031;28;20387;-76
2022/06/18 00:18:42;;;;;;;4.85;2.42;;;;;;;22.57;51.41;101659.28;5065265;28;20024;-76
2022/06/18 00:21:12;;;;;;;5.20;2.10;;;;;;;22.56;50.98;101666.34;5065887;28;20045;-76
2022/06/18 00:23:39;;;;;;;3.63;2.10;;;;;;;22.54;51.61;101655.03;5064636;28;20017;-76
2022/06/18 00:26:04;;;;;;;3.15;2.30;;;;;;;22.52;51.48;101653.41;5070642;28;20024;-76
2022/06/18 00:28:31;;;;;;;4.22;2.30;;;;;;;22.50;51.83;101657.94;5066785;28;20066;-76
2022/06/18 00:30:57;;;;;;;4.15;2.40;;;;;;;22.46;52.25;101654.66;5064849;28;20052;-76
2022/06/18 00:33:24;;;;;;;3.95;2.47;;;;;;;22.43;52.45;101649.53;5069677;28;20024;-76
2022/06/18 00:35:51;;;;;;;6.13;2.40;;;;;;;22.40;52.28;101660.28;5068553;28;20085;-76
2022/06/18 00:38:24;;;;;;;4.05;2.55;;;;;;;22.35;52.82;101657.09;5066174;28;20027;-76
2022/06/18 00:40:50;;;;;;;6.03;2.72;;;;;;;22.31;53.01;101650.28;5072172;28;20040;-76
2022/06/18 00:43:23;;;;;;;4.70;2.60;;;;;;;22.27;53.06;101660.22;5062358;28;20024;-76
2022/06/18 00:45:52;;;;;;;5.65;2.38;;;;;;;22.22;53.31;101663.16;5064409;28;20046;-76
2022/06/18 00:48:27;;;;;;;3.55;2.38;;;;;;;22.20;52.99;101659.78;5066196;28;20027;-76
2022/06/18 00:51:02;;;;;;;3.60;2.25;;;;;;;22.18;52.86;101656.34;5057512;28;20147;-76
2022/06/18 00:53:44;;;;;;;4.25;2.20;;;;;;;22.16;52.87;101652.94;5062280;28;20019;-76
2022/06/18 00:56:17;;;;;;;4.18;2.53;;;;;;;22.12;53.35;101652.25;5059018;28;20028;-76
2022/06/18 00:58:49;;;;;;;4.70;2.60;;;;;;;22.10;53.82;101658.63;5065623;28;20032;-76
2022/06/18 01:01:23;;;;;;;5.30;2.65;;;;;;;22.05;53.43;101656.25;5066039;28;20103;-76
2022/06/18 01:03:50;;;;;;;3.30;2.30;;;;;;;22.02;54.02;101655.59;5063651;28;20040;-76
2022/06/18 01:06:22;;;;;;;6.63;3.10;;;;;;;21.95;54.24;101661.25;5065436;28;20440;-76
2022/06/18 01:08:52;;;;;;;4.82;2.67;;;;;;;21.92;54.67;101650.00;5064464;28;20026;-76
2022/06/18 01:11:22;;;;;;;3.70;2.55;;;;;;;21.89;54.30;101647.53;5064117;28;20069;-76
2022/06/18 01:13:48;;;;;;;4.70;2.90;;;;;;;21.86;54.79;101639.78;5063156;28;20021;-76
2022/06/18 01:16:16;;;;;;;3.45;2.38;;;;;;;21.82;54.97;101645.25;5063199;28;20162;-76
2022/06/18 01:18:42;;;;;;;7.53;2.63;;;;;;;21.79;54.71;101634.84;5062074;28;20135;-76
2022/06/18 01:21:35;;;;;;;4.30;2.70;;;;;;;21.78;54.18;101637.59;5068519;28;20044;-76
2022/06/18 01:24:30;;;;;;;4.38;2.60;;;;;;;21.75;54.10;101632.47;5065339;28;20029;-76
2022/06/18 01:26:56;;;;;;;5.00;2.78;;;;;;;21.71;55.21;101630.97;5066995;28;20042;-76
2022/06/18 01:29:21;;;;;;;4.25;2.92;;;;;;;21.66;55.65;101633.91;5070452;28;20025;-76
2022/06/18 01:31:47;;;;;;;3.55;2.70;;;;;;;21.63;55.80;101634.06;5067007;28;20409;-76
2022/06/18 01:34:14;;;;;;;4.63;2.70;;;;;;;21.56;55.51;101633.56;5064300;28;20048;-76
2022/06/18 01:36:41;;;;;;;6.75;3.05;;;;;;;21.54;56.03;101640.75;5067783;28;20031;-76
2022/06/18 01:39:12;;;;;;;4.15;2.90;;;;;;;21.53;55.99;101639.03;5074631;28;20085;-76
2022/06/18 01:41:51;;;;;;;5.40;2.72;;;;;;;21.54;55.43;101638.09;5049190;28;20437;-76
2022/06/18 01:44:23;;;;;;;4.63;2.90;;;;;;;21.54;55.69;101635.44;5064791;28;20422;-76
2022/06/18 01:46:52;;;;;;;3.35;2.95;;;;;;;21.53;56.16;101634.59;5048177;28;20119;-76
2022/06/18 01:49:26;;;;;;;5.60;3.17;;;;;;;21.53;56.48;101636.38;5068348;28;20692;-76
2022/06/18 01:51:55;;;;;;;4.10;2.83;;;;;;;21.50;56.45;101639.25;5066411;28;20111;-76
2022/06/18 01:54:27;;;;;;;8.15;3.20;;;;;;;21.47;56.67;101628.81;5071815;28;20707;-76
2022/06/18 01:56:59;;;;;;;4.53;3.20;;;;;;;21.43;57.10;101632.59;5068348;28;20028;-76
2022/06/18 01:59:33;;;;;;;;;;;;;;;21.51;54.91;101627.72;5065801;28;20111;-76
2022/06/18 02:01:59;;;;;;;5.10;3.00;;;;;;;21.40;57.09;101627.47;5060173;28;19912;-76
2022/06/18 02:04:27;;;;;;;5.35;3.33;;;;;;;21.37;57.27;101623.22;5069028;28;20020;-76
2022/06/18 02:06:53;;;;;;;6.68;3.20;;;;;;;21.33;57.34;101617.28;5068453;28;20053;-76
2022/06/18 02:09:34;;;;;;;6.28;3.10;;;;;;;21.29;56.37;101615.75;5067134;28;20040;-75
2022/06/18 02:12:03;;;;;;;4.50;3.22;;;;;;;21.25;57.53;101616.84;5066979;28;20387;-76
2022/06/18 02:14:29;;;;;;;4.95;3.30;;;;;;;21.21;57.62;101617.97;5067435;28;20030;-76
2022/06/18 02:16:57;;;;;;;8.30;3.30;;;;;;;21.19;57.75;101619.84;5068200;28;20031;-76
2022/06/18 02:19:22;;;;;;;3.97;3.28;;;;;;;21.16;57.80;101612.13;5066131;28;20594;-76
2022/06/18 02:21:52;;;;;;;5.00;3.33;;;;;;;21.13;58.05;101609.63;5068316;28;20123;-76
2022/06/18 02:24:18;;;;;;;6.82;3.58;;;;;;;21.12;58.23;101613.22;5069519;28;20484;-76
2022/06/18 02:26:45;;;;;;;7.47;3.42;;;;;;;21.10;58.14;101615.09;5078179;28;20102;-76
2022/06/18 02:29:19;;;;;;;5.65;3.83;;;;;;;21.08;57.87;101610.75;5050797;28;20063;-76
2022/06/18 02:31:45;;;;;;;6.78;3.50;;;;;;;21.06;58.71;101617.94;5066542;28;20119;-76
2022/06/18 02:34:15;;;;;;;5.47;3.80;;;;;;;21.03;58.49;101609.31;5070276;28;20012;-75
2022/06/18 02:36:41;;;;;;;4.47;3.63;;;;;;;21.02;58.38;101607.63;5067360;28;20016;-76
2022/06/18 02:39:25;;;;;;;4.80;3.47;;;;;;;21.01;58.76;101611.19;5072823;28;20387;-76
2022/06/18 02:41:57;;;;;;;4.63;3.35;;;;;;;20.99;58.46;101608.66;5067562;28;20032;-76
2022/06/18 02:44:22;;;;;;;7.00;3.85;;;;;;;21.00;58.29;101602.44;5072536;28;20589;-75
2022/06/18 02:46:47;;;;;;;6.28;3.70;;;;;;;21.01;58.33;101609.38;5069520;28;20028;-76
2022/06/18 02:49:14;;;;;;;6.30;3.35;;;;;;;21.00;58.29;101610.34;5071240;28;20021;-76
2022/06/18 02:51:40;;;;;;;6.53;3.70;;;;;;;21.01;58.02;101604.09;5065102;28;20078;-76
2022/06/18 02:54:05;;;;;;;5.07;4.00;;;;;;;21.01;58.37;101604.09;5071917;28;20032;-75
2022/06/18 02:56:31;;;;;;;6.43;3.78;;;;;;;21.01;58.60;101605.91;5079298;28;20088;-75
2022/06/18 02:58:56;;;;;;;5.28;3.80;;;;;;;21.00;58.37;101610.34;5072844;28;20483;-76
2022/06/18 03:01:29;;;;;;;6.97;3.97;;;;;;;20.99;58.11;101607.78;5069306;28;20020;-75
2022/06/18 03:03:57;;;;;;;6.18;3.63;;;;;;;20.99;58.63;101613.94;5066787;28;20033;-76
2022/06/18 03:06:25;;;;;;;7.53;3.95;;;;;;;20.97;58.33;101610.53;5065380;28;20036;-76
2022/06/18 03:08:51;;;;;;;5.82;3.90;;;;;;;20.98;58.43;101616.66;5066595;28;20124;-76
2022/06/18 03:14:04;;;;;;;6.70;4.03;;;;;;;20.96;58.12;101615.88;5067970;28;20051;-76
2022/06/18 03:16:30;;;;;;;9.05;4.00;;;;;;;20.95;58.32;101617.69;5068286;28;20055;-76
2022/06/18 03:18:57;;;;;;;4.72;3.90;;;;;;;20.93;58.19;101617.78;5064896;28;20047;-75
2022/06/18 03:21:50;;;;;;;5.72;3.78;;;;;;;20.95;57.71;101615.06;5078528;28;20030;-76
2022/06/18 03:24:15;;;;;;;5.47;4.40;;;;;;;20.93;58.40;101619.56;5071132;28;20387;-76
2022/06/18 03:26:41;;;;;;;5.63;4.40;;;;;;;20.91;58.38;101627.63;5068351;28;20029;-76
2022/06/18 03:29:07;;;;;;;7.53;4.38;;;;;;;20.89;58.33;101623.34;5067656;28;20048;-75
2022/06/18 03:31:34;;;;;;;8.63;4.40;;;;;;;20.87;58.46;101622.56;5062219;28;20043;-75
2022/06/18 03:34:00;;;;;;;7.90;4.70;;;;;;;20.86;58.50;101620.84;5065756;28;20365;-76
2022/06/18 03:36:26;;;;;;;5.13;4.03;;;;;;;20.85;58.30;101627.94;5067417;28;20036;-76
2022/06/18 03:38:52;;;;;;;8.07;4.00;;;;;;;20.85;58.35;101627.09;5067499;28;20047;-76
2022/06/18 03:41:19;;;;;;;7.88;4.22;;;;;;;20.86;58.35;101636.72;5065193;28;20039;-76
2022/06/18 03:43:44;;;;;;;8.95;4.13;;;;;;;20.85;58.10;101635.00;5063926;28;20116;-76
2022/06/18 03:46:13;;;;;;;6.82;4.53;;;;;;;20.85;58.05;101635.88;5065254;28;20103;-76
2022/06/18 03:48:52;;;;;;;7.13;4.00;;;;;;;20.84;57.84;101635.94;5065603;28;20034;-75
2022/06/18 03:51:19;;;;;;;8.48;4.18;;;;;;;20.84;58.21;101635.94;5063800;28;20112;-76
2022/06/18 03:53:45;;;;;;;7.45;4.43;;;;;;;20.83;58.30;101639.56;5059199;28;20016;-75
2022/06/18 03:56:12;;;;;;;11.18;4.80;;;;;;;20.84;57.96;101633.31;5067770;28;20024;-76
2022/06/18 03:58:39;;;;;;;8.27;4.60;;;;;;;20.84;58.13;101638.59;5060611;28;20038;-76
2022/06/18 04:01:04;;;;;;;8.10;4.28;;;;;;;20.82;58.13;101629.94;5065994;28;20033;-76
2022/06/18 04:03:29;;;;;;;8.00;4.53;;;;;;;20.84;58.41;101628.03;5060024;28;20111;-76
2022/06/18 04:05:55;;;;;;;11.32;4.82;;;;;;;20.82;59.15;101622.00;5069064;28;20115;-76
2022/06/18 04:08:20;;;;;;;7.72;4.63;;;;;;;20.77;59.25;101617.81;5071413;28;20090;-75
2022/06/18 04:10:46;;;;;;;7.55;4.70;;;;;;;20.75;59.14;101611.75;5067908;28;20059;-76
2022/06/18 04:13:11;;;;;;;8.65;4.70;;;;;;;20.73;59.34;101613.59;5061625;28;20024;-76
2022/06/18 04:15:37;;;;;;;7.47;4.80;;;;;;;20.72;59.43;101616.34;5044460;28;20494;-75
2022/06/18 04:18:03;;;;;;;8.70;4.82;;;;;;;20.70;59.16;101612.94;5069957;28;20024;-76
2022/06/18 04:20:32;;;;;;;10.32;4.88;;;;;;;20.70;59.30;101621.69;5062332;28;20063;-76
2022/06/18 04:22:57;;;;;;;10.52;5.10;;;;;;;20.70;59.52;101613.75;5066969;28;20502;-76
2022/06/18 04:25:23;;;;;;;9.52;4.97;;;;;;;20.70;59.67;101610.28;5042947;28;20039;-76
2022/06/18 04:27:49;;;;;;;11.45;5.03;;;;;;;20.70;59.88;101608.47;5065754;28;20029;-76
2022/06/18 04:30:17;;;;;;;8.77;5.07;;;;;;;20.68;59.88;101607.69;5066600;28;20081;-76
2022/06/18 04:32:42;;;;;;;7.07;4.90;;;;;;;20.70;60.02;101607.63;5070335;28;20532;-76
2022/06/18 04:35:10;;;;;;;7.18;4.90;;;;;;;20.69;59.62;101609.41;5064938;28;20467;-75
2022/06/18 04:37:36;;;;;;;9.25;4.53;;;;;;;20.71;60.21;101606.69;5063174;28;20079;-76
2022/06/18 04:40:03;;;;;;;7.70;4.68;;;;;;;20.73;59.43;101603.00;5065028;28;20111;-76
2022/06/18 04:42:28;;;;;;;6.55;4.70;;;;;;;20.75;59.95;101606.47;5062805;28;20106;-76
2022/06/18 04:44:53;;;;;;;8.05;4.88;;;;;;;20.79;59.59;101599.19;5062973;28;20033;-76
2022/06/18 04:47:19;;;;;;;7.53;4.90;;;;;;;20.82;59.47;101606.97;5060530;28;20059;-76
2022/06/18 04:49:44;;;;;;;8.25;4.65;;;;;;;20.85;59.65;101605.94;5065791;28;20039;-76
2022/06/18 04:52:10;;;;;;;7.45;4.68;;;;;;;20.88;59.39;101611.03;5060180;28;20474;-75
2022/06/18 04:54:35;;;;;;;8.23;4.93;;;;;;;20.90;59.68;101615.31;5053318;28;20037;-75
2022/06/18 04:57:01;;;;;;;10.48;4.90;;;;;;;20.92;58.91;101613.41;5064352;28;20487;-75
2022/06/18 04:59:26;;;;;;;9.23;4.82;;;;;;;20.96;59.30;101614.13;5063467;28;20072;-76
2022/06/18 05:02:00;;;;;;;8.65;4.97;;;;;;;21.00;58.72;101610.34;5061730;28;20038;-75
2022/06/18 05:04:25;;;;;;;6.10;4.55;;;;;;;21.03;59.32;101618.09;5060656;28;20029;-76
2022/06/18 05:06:50;;;;;;;9.00;4.70;;;;;;;21.07;58.83;101624.91;5062600;28;20114;-76
2022/06/18 05:09:16;;;;;;;8.02;4.60;;;;;;;21.10;59.23;101620.41;5063197;28;20047;-76
2022/06/18 05:11:42;;;;;;;6.20;4.68;;;;;;;21.12;59.60;101614.06;5061177;28;20495;-76
2022/06/18 05:14:07;;;;;;;6.78;4.88;;;;;;;21.15;59.42;101613.06;5045181;28;20432;-76
2022/06/18 05:16:33;;;;;;;7.45;4.70;;;;;;;21.18;58.93;101624.31;5057925;28;20103;-76
2022/06/18 05:18:58;;;;;;;9.15;4.93;;;;;;;21.21;59.27;101623.25;5061245;28;20036;-75
2022/06/18 05:21:23;;;;;;;6.43;4.82;;;;;;;21.23;58.93;101621.38;5063042;28;20108;-76
2022/06/18 05:23:48;;;;;;;8.18;4.43;;;;;;;21.28;59.59;101619.31;5065875;28;20051;-76
2022/06/18 05:26:15;;;;;;;7.82;4.80;;;;;;;21.31;59.62;101628.88;5063701;28;20031;-76
2022/06/18 05:28:40;;;;;;;7.70;4.90;;;;;;;21.33;59.33;101633.16;5058696;28;20112;-75
2022/06/18 05:31:06;;;;;;;7.80;4.72;;;;;;;21.36;59.19;101638.22;5062167;28;20142;-76
2022/06/18 05:33:31;;;;;;;7.68;4.70;;;;;;;21.38;59.04;101633.72;5064697;28;20424;-76
2022/06/18 05:35:57;;;;;;;7.15;4.80;;;;;;;21.42;59.78;101630.88;5061036;28;20434;-76
2022/06/18 05:38:24;;;;;;;8.57;4.70;;;;;;;21.45;59.70;101630.72;5062072;28;20029;-76
2022/06/18 05:40:49;;;;;;;7.00;4.95;;;;;;;21.46;59.59;101632.41;5041738;28;20024;-76
2022/06/18 05:43:15;;;;;;;9.43;5.03;;;;;;;21.48;59.16;101635.81;5040087;28;20047;-76
2022/06/18 05:45:41;;;;;;;7.72;5.00;;;;;;;21.50;59.27;101640.06;5060522;28;20024;-76
2022/06/18 05:48:09;;;;;;;9.50;5.00;;;;;;;21.54;59.76;101638.09;5055473;28;20040;-76
2022/06/18 05:50:34;;;;;;;9.57;4.95;;;;;;;21.57;60.19;101643.22;5065513;28;20039;-75
2022/06/18 05:53:00;;;;;;;12.27;5.60;;;;;;;21.59;59.43;101646.63;5064269;28;20036;-76
2022/06/18 05:55:25;;;;;;;12.13;5.70;;;;;;;21.64;59.86;101644.59;5062827;28;20027;-76
2022/06/18 05:57:54;;;;;;;13.80;6.00;;;;;;;21.67;58.42;101641.75;5061047;28;20063;-75
2022/06/18 06:00:24;;;;;;;9.48;5.95;;;;;;;21.72;57.54;101643.25;5064966;28;20029;-76
2022/06/18 06:02:49;;;;;;;13.17;6.20;;;;;;;21.76;57.55;101636.84;5062233;28;20024;-77
2022/06/18 06:05:15;;;;;;;12.55;6.07;;;;;;;21.80;57.45;101635.72;5064057;28;20036;-76
2022/06/18 06:07:41;;;;;;;9.98;5.90;;;;;;;21.85;57.42;101638.94;5066378;28;20036;-76
2022/06/18 06:13:08;;;;;;;8.77;5.93;;;;;;;21.92;56.86;101629.66;5064375;28;20051;-75
2022/06/18 06:15:34;;;;;;;9.13;6.07;;;;;;;21.95;57.21;101624.19;5069869;28;20048;-76
2022/06/18 06:18:00;;;;;;;10.55;6.20;;;;;;;21.97;56.84;101624.94;5069713;28;20024;-76
2022/06/18 06:20:30;;;;;;;12.55;6.43;;;;;;;22.00;57.42;101612.44;5075484;28;20389;-76
2022/06/18 06:22:56;;;;;;;9.93;6.43;;;;;;;22.02;57.16;101619.34;5073396;28;20024;-76
2022/06/18 06:25:21;;;;;;;10.15;6.05;;;;;;;22.06;56.30;101620.00;5057056;28;20028;-76
2022/06/18 06:27:46;;;;;;;10.55;6.13;;;;;;;22.07;56.63;101616.41;5074758;28;20050;-76
2022/06/18 06:30:13;;;;;;;8.55;6.25;;;;;;;22.11;56.40;101617.94;5074654;28;20070;-76
2022/06/18 06:32:39;;;;;;;12.57;6.30;;;;;;;22.11;55.98;101610.84;5070930;28;20116;-77
2022/06/18 06:35:05;;;;;;;14.20;6.53;;;;;;;22.14;55.50;101623.03;5068347;28;20096;-76
2022/06/18 06:37:30;;;;;;;11.02;6.00;;;;;;;22.18;56.35;101615.75;5067148;28;20024;-76
2022/06/18 06:39:55;;;;;;;11.25;6.32;;;;;;;22.22;55.96;101620.75;5066265;28;20425;-77
2022/06/18 06:42:21;;;;;;;9.15;6.47;;;;;;;22.26;56.12;101621.41;5041561;28;20028;-76
2022/06/18 06:44:46;;;;;;;13.55;6.80;;;;;;;22.31;56.66;101623.78;5062548;28;20043;-76
2022/06/18 06:47:11;;;;;;;13.48;6.20;;;;;;;22.34;55.67;101618.28;5058079;28;20025;-75
2022/06/18 06:49:37;;;;;;;9.45;6.40;;;;;;;22.38;55.51;101619.78;5058657;28;20478;-76
2022/06/18 06:52:02;;;;;;;10.10;6.45;;;;;;;22.41;57.05;101615.16;5057297;28;20036;-75
2022/06/18 06:54:27;;;;;;;11.45;7.10;;;;;;;22.47;57.04;101615.72;5063486;28;20074;-75
2022/06/18 06:59:36;;;;;;;12.48;7.18;;;;;;;22.57;56.13;101619.50;5062394;28;20086;-76
2022/06/18 07:02:02;;;;;;;11.20;7.13;;;;;;;22.62;56.21;101624.50;5062552;28;20036;-75
2022/06/18 07:04:28;;;;;;;12.95;7.50;;;;;;;22.65;55.98;101621.66;5065434;28;20032;-76
2022/06/18 07:06:56;;;;;;;13.07;7.30;;;;;;;22.67;56.21;101620.59;5046652;28;20049;-76
2022/06/18 07:09:21;;;;;;;13.38;6.88;;;;;;;22.70;56.08;101622.22;5048608;28;20028;-76
2022/06/18 07:11:47;;;;;;;17.52;6.85;;;;;;;22.74;56.64;101616.59;5065805;28;20398;-76
2022/06/18 07:14:12;;;;;;;16.42;7.00;;;;;;;22.77;55.16;101620.84;5066675;28;20111;-76
2022/06/18 07:16:47;;;;;;;11.98;6.47;;;;;;;22.82;55.16;101624.06;5065768;28;20030;-76
2022/06/18 07:19:13;;;;;;;12.75;6.53;;;;;;;22.85;55.05;101623.00;5065021;28;20517;-75
2022/06/18 07:21:38;;;;;;;16.10;6.03;;;;;;;22.91;55.41;101627.03;5048831;28;20491;-76
2022/06/18 07:24:04;;;;;;;7.70;5.65;;;;;;;22.96;56.31;101619.63;5066090;28;20044;-75
2022/06/18 07:26:29;;;;;;;17.00;6.60;;;;;;;23.00;55.76;101621.97;5066522;28;20486;-75
2022/06/18 07:28:54;;;;;;;12.15;5.82;;;;;;;23.06;54.69;101625.19;5064017;28;20074;-75
2022/06/18 07:31:27;;;;;;;8.95;6.28;;;;;;;23.10;55.05;101619.56;5062650;28;20032;-76
2022/06/18 07:33:53;;;;;;;11.77;6.32;;;;;;;23.15;55.43;101627.22;5063979;28;20033;-76
2022/06/18 07:36:19;;;;;;;12.00;6.53;;;;;;;23.21;55.75;101618.06;5066410;28;20028;-76
2022/06/18 07:38:45;;;;;;;15.25;6.20;;;;;;;23.26;54.83;101621.22;5062196;28;20028;-76
2022/06/18 07:41:11;;;;;;;13.75;5.60;;;;;;;23.30;55.14;101617.41;5064746;28;20031;-76
2022/06/18 07:43:54;;;;;;;12.98;5.63;;;;;;;23.34;54.98;101616.25;5066267;28;20035;-75
2022/06/18 07:46:20;;;;;;;12.88;6.13;;;;;;;23.38;54.18;101614.22;5062679;28;20028;-76
2022/06/18 07:48:45;;;;;;;12.45;6.30;;;;;;;23.41;54.30;101611.38;5065967;28;20043;-74
2022/06/18 07:51:12;;;;;;;9.82;5.18;;;;;;;23.45;55.52;101610.22;5062481;28;20033;-74
2022/06/18 07:53:38;;;;;;;12.52;5.88;;;;;;;23.52;54.73;101618.63;5061247;28;20034;-75
2022/06/18 07:56:05;;;;;;;14.55;5.63;;;;;;;23.56;54.62;101606.84;5065882;28;20415;-75
2022/06/18 07:58:30;;;;;;;12.65;6.13;;;;;;;23.62;54.22;101611.69;5059469;28;20036;-75
2022/06/18 08:00:57;;;;;;;10.93;6.05;;;;;;;23.65;54.57;101601.72;5063198;28;20024;-75
2022/06/18 08:03:24;;;;;;;10.50;6.28;;;;;;;23.69;54.23;101607.69;5061608;28;20028;-75
2022/06/18 08:05:49;;;;;;;13.40;5.93;;;;;;;23.73;55.19;101598.53;5063398;28;20382;-75
2022/06/18 08:10:34;;;;;;;13.35;6.53;;;;;;;23.82;55.52;101599.72;5093559;27;20372;-73
2022/06/18 08:13:00;;;;;;;13.00;6.50;;;;;;;23.86;54.92;101595.00;5092672;28;20097;-73
2022/06/18 08:15:25;;;;;;;11.95;6.38;;;;;;;23.90;55.10;101596.50;5096981;28;20028;-73
2022/06/18 08:17:50;;;;;;;9.50;5.80;;;;;;;23.93;53.74;101585.63;5095313;28;20031;-73
2022/06/18 08:20:16;;;;;;;13.48;5.88;;;;;;;23.97;54.59;101595.13;5093268;28;20027;-73
2022/06/18 08:22:44;;;;;;;10.45;6.07;;;;;;;24.02;55.17;101585.03;5092194;28;20360;-73
2022/06/18 08:25:11;;;;;;;16.60;6.30;;;;;;;24.06;55.04;101581.19;5087880;28;20502;-73
2022/06/18 08:27:37;;;;;;;11.55;6.43;;;;;;;24.10;55.19;101574.69;5081364;28;20024;-73
2022/06/18 08:30:04;;;;;;;10.63;6.18;;;;;;;24.15;55.81;101587.66;5083279;28;20115;-74
2022/06/18 08:32:30;;;;;;;9.73;6.10;;;;;;;24.18;54.35;101576.78;5083732;28;20472;-73
2022/06/18 08:34:55;;;;;;;10.48;6.00;;;;;;;24.21;53.84;101575.75;5080964;28;20120;-74
2022/06/18 08:37:21;;;;;;;9.55;6.40;;;;;;;24.24;53.21;101575.53;5079894;28;20042;-73
2022/06/18 08:39:46;;;;;;;12.90;6.57;;;;;;;24.29;54.66;101576.00;5082964;28;20437;-74
2022/06/18 08:42:30;;;;;;;10.77;6.43;;;;;;;24.34;54.26;101576.53;5084874;28;20103;-73
2022/06/18 08:45:29;;;;;;;12.77;6.47;;;;;;;24.40;53.76;101581.41;5087104;28;20073;-73
2022/06/18 08:48:19;;;;;;;11.35;6.63;;;;;;;24.43;54.57;101579.47;5087370;28;20024;-73
2022/06/18 08:51:09;;;;;;;13.27;6.95;;;;;;;24.48;54.71;101577.34;5086026;28;20032;-73
2022/06/18 08:53:53;;;;;;;9.43;6.93;;;;;;;24.50;54.23;101586.91;5087562;28;20039;-73
2022/06/18 08:56:33;;;;;;;11.80;6.95;;;;;;;24.55;53.88;101581.25;5087380;28;20412;-73
2022/06/18 08:59:23;;;;;;;12.82;7.10;;;;;;;24.61;55.33;101582.59;5087512;28;20017;-73
2022/06/18 09:02:09;;;;;;;11.82;6.97;;;;;;;24.65;53.89;101584.91;5086157;28;20032;-73
2022/06/18 09:05:06;;;;;;;12.63;7.57;;;;;;;24.71;54.06;101594.28;5087782;28;20472;-73
2022/06/18 09:07:46;;;;;;;10.40;6.15;;;;;;;24.72;53.44;101595.16;5084906;28;20036;-73
2022/06/18 09:10:42;;;;;;;9.73;5.53;;;;;;;24.76;52.63;101591.31;5086425;28;20043;-73
2022/06/18 09:13:19;;;;;;;11.95;6.00;;;;;;;24.80;52.30;101582.09;5086424;28;20110;-73
2022/06/18 09:15:53;;;;;;;16.65;6.07;;;;;;;24.85;51.77;101590.59;5087895;28;20169;-73
2022/06/18 09:18:18;;;;;;;12.75;5.75;;;;;;;24.90;52.45;101587.59;5086833;28;20024;-74
2022/06/18 09:20:54;;;;;;;10.50;5.82;;;;;;;24.95;52.45;101591.59;5079965;28;20052;-73
2022/06/18 09:23:25;;;;;;;10.52;5.13;;;;;;;24.97;50.10;101595.00;5074235;28;20491;-73
2022/06/18 09:25:52;;;;;;;10.25;5.15;;;;;;;24.98;49.90;101593.22;5074178;28;20539;-73
2022/06/18 09:28:33;;;;;;;12.07;5.95;;;;;;;24.99;50.90;101590.41;5072932;28;20048;-73
2022/06/18 09:31:12;;;;;;;12.93;6.35;;;;;;;25.06;52.31;101588.13;5072270;28;20037;-74
2022/06/18 09:33:45;;;;;;;10.75;4.80;;;;;;;25.09;49.31;101589.72;5073154;28;20467;-73
2022/06/18 09:36:16;;;;;;;11.75;4.72;;;;;;;25.14;49.92;101587.56;5073921;28;20387;-74
2022/06/18 09:38:48;;;;;;;9.13;4.30;;;;;;;25.18;48.83;101591.69;5073735;28;20115;-73
2022/06/18 09:41:40;;;;;;;12.85;4.75;;;;;;;25.24;49.96;101591.22;5071570;28;20028;-73
2022/06/18 09:44:37;;;;;;;12.48;4.95;;;;;;;25.26;49.96;101583.97;5072705;28;20032;-73
2022/06/18 09:47:17;;;;;;;11.82;4.70;;;;;;;25.27;49.11;101577.69;5073651;28;20107;-73
2022/06/18 09:49:46;;;;;;;11.80;5.03;;;;;;;25.29;49.84;101575.72;5071954;28;20086;-73
2022/06/18 09:52:16;;;;;;;13.35;4.78;;;;;;;25.36;50.51;101584.13;5070019;28;20103;-73
2022/06/18 09:55:02;;;;;;;14.93;4.75;;;;;;;25.42;49.37;101564.16;5067148;28;20052;-73
2022/06/18 09:57:33;;;;;;;11.30;4.50;;;;;;;25.48;48.84;101566.34;5069756;28;20093;-73
2022/06/18 10:00:16;;;;;;;15.75;4.53;;;;;;;25.55;49.88;101567.56;5069547;28;20029;-74
2022/06/18 10:02:49;;;;;;;11.77;4.68;;;;;;;25.59;48.26;101558.38;5069141;28;20032;-73
2022/06/18 10:08:14;;;;;;;8.90;4.50;;;;;;;25.68;47.92;101562.13;5068343;28;20039;-73
2022/06/18 10:10:51;;;;;;;11.00;4.13;;;;;;;25.70;48.77;101548.66;5068640;28;20125;-74
2022/06/18 10:13:28;;;;;;;11.43;5.20;;;;;;;25.73;48.98;101551.94;5063032;28;20035;-73
2022/06/18 10:16:02;;;;;;;9.82;5.15;;;;;;;25.78;49.80;101551.59;5068722;28;20475;-74
2022/06/18 10:18:45;;;;;;;11.95;4.93;;;;;;;25.79;48.25;101558.59;5068185;28;20025;-73
2022/06/18 10:21:49;;;;;;;12.05;6.03;;;;;;;25.85;50.37;101552.78;5065076;28;20387;-73
2022/06/18 10:24:24;;;;;;;8.60;4.82;;;;;;;25.87;48.56;101544.69;5059389;28;20078;-74
2022/06/18 10:27:15;;;;;;;19.65;5.45;;;;;;;25.89;49.83;101554.25;5065586;28;20605;-74
2022/06/18 10:29:56;;;;;;;10.50;5.28;;;;;;;25.94;49.95;101545.03;5068564;28;20017;-73
2022/06/18 10:32:39;;;;;;;11.30;5.70;;;;;;;25.98;50.17;101552.66;5065205;28;20064;-73
2022/06/18 10:35:07;;;;;;;12.65;5.82;;;;;;;26.04;51.41;101545.97;5075278;28;20032;-73
2022/06/18 10:38:01;;;;;;;8.63;5.35;;;;;;;26.06;50.16;101546.69;5073115;28;20043;-74
2022/06/18 10:40:38;;;;;;;11.15;5.22;;;;;;;26.13;51.63;101539.91;5076968;28;20485;-74
2022/06/18 10:43:28;;;;;;;10.43;5.57;;;;;;;26.18;51.37;101543.06;5074645;28;20037;-73
2022/06/18 10:46:10;;;;;;;9.05;5.30;;;;;;;26.24;50.58;101546.22;5066739;28;20128;-74
2022/06/18 10:48:36;;;;;;;14.07;6.70;;;;;;;26.24;51.21;101540.88;5080747;28;20073;-73
2022/06/18 10:51:02;;;;;;;9.93;5.72;;;;;;;26.21;50.21;101529.47;5076645;28;20375;-73
2022/06/18 10:53:34;;;;;;;12.85;5.70;;;;;;;26.21;50.06;101529.47;5069170;28;20115;-74
2022/06/18 10:56:03;;;;;;;11.23;6.20;;;;;;;26.24;50.17;101528.38;5076070;28;20035;-74
2022/06/18 10:58:29;;;;;;;16.80;6.13;;;;;;;26.27;50.60;101519.28;5067605;28;20040;-74
2022/06/18 11:00:58;;;;;;;13.60;5.60;;;;;;;26.30;50.31;101517.22;5065941;28;20036;-73
2022/06/18 11:03:27;;;;;;;10.50;5.93;;;;;;;26.35;49.93;101514.16;5064670;28;20047;-74
2022/06/18 11:05:53;;;;;;;10.95;6.10;;;;;;;26.42;51.17;101514.50;5067820;28;20024;-74
2022/06/18 11:08:25;;;;;;;15.38;6.93;;;;;;;26.42;49.55;101518.03;5073877;28;20039;-74
2022/06/18 11:11:03;;;;;;;11.40;5.55;;;;;;;26.47;49.87;101520.31;5076169;28;20059;-74
2022/06/18 11:13:39;;;;;;;12.13;5.00;;;;;;;26.54;50.48;101513.50;5073583;28;20087;-74
2022/06/18 11:16:11;;;;;;;10.20;5.10;;;;;;;26.65;52.00;101512.56;5075514;28;20039;-73
2022/06/18 11:19:13;;;;;;;11.50;5.63;;;;;;;26.67;49.81;101500.81;5078733;28;20502;-74
2022/06/18 11:21:40;;;;;;;12.98;5.60;;;;;;;26.73;50.57;101493.28;5071553;28;20042;-74
2022/06/18 11:24:13;;;;;;;11.07;5.32;;;;;;;26.79;50.15;101493.63;5079467;28;20431;-74
2022/06/18 11:26:41;;;;;;;9.20;5.00;;;;;;;26.85;49.92;101494.06;5074515;28;20471;-74
2022/06/18 11:29:20;;;;;;;11.98;5.55;;;;;;;26.90;48.91;101481.16;5077409;28;20050;-74
2022/06/18 11:31:51;;;;;;;7.85;4.88;;;;;;;26.95;49.66;101484.31;5064462;28;20134;-74
2022/06/18 11:34:23;;;;;;;12.07;5.65;;;;;;;26.94;48.21;101480.78;5071885;28;20028;-73
2022/06/18 11:36:52;;;;;;;13.98;5.40;;;;;;;26.96;47.43;101472.66;5071744;28;20047;-74
2022/06/18 11:39:32;;;;;;;13.57;5.53;;;;;;;26.99;48.36;101461.69;5058389;28;20107;-74
2022/06/18 11:42:21;;;;;;;13.32;5.85;;;;;;;27.03;48.47;101459.59;5067406;28;20111;-74
2022/06/18 11:45:14;;;;;;;10.98;5.63;;;;;;;27.08;48.86;101455.56;5075964;28;20050;-74
2022/06/18 11:47:49;;;;;;;13.00;5.28;;;;;;;27.15;49.02;101458.53;5073440;28;20112;-74
2022/06/18 11:50:19;;;;;;;10.38;5.40;;;;;;;27.20;48.26;101453.66;5072531;28;20032;-74